sensor_id;sensor_type;location;lat;lon;timestamp;P1;durP1;ratioP1;P2;durP2;ratioP2
4504;SDS011;2265;48.794;9.520;2023-08-06T00:02:15;4.90;;;3.00;;
4504;SDS011;2265;48.794;9.520;2023-08-06T00:04:43;5.47;;;3.53;;
4504;SDS011;2265;48.794;9.520;2023-08-06T00:07:11;4.80;;;2.87;;
4504;SDS011;2265;48.794;9.520;2023-08-06T00:09:38;4.93;;;3.33;;
4504;SDS011;2265;48.794;9.520;2023-08-06T00:12:05;4.93;;;3.30;;
4504;SDS011;2265;48.794;9.520;2023-08-06T00:14:34;7.20;;;3.40;;
4504;SDS011;2265;48.794;9.520;2023-08-06T00:17:02;13.83;;;6.93;;
4504;SDS011;2265;48.794;9.520;2023-08-06T00:19:30;11.87;;;4.07;;
4504;SDS011;2265;48.794;9.520;2023-08-06T00:21:57;6.37;;;3.50;;
4504;SDS011;2265;48.794;9.520;2023-08-06T00:24:25;5.20;;;3.60;;
4504;SDS011;2265;48.794;9.520;2023-08-06T00:26:52;7.50;;;3.73;;
4504;SDS011;2265;48.794;9.520;2023-08-06T00:29:19;5.10;;;3.27;;
4504;SDS011;2265;48.794;9.520;2023-08-06T00:31:50;5.00;;;3.47;;
4504;SDS011;2265;48.794;9.520;2023-08-06T00:34:18;6.73;;;3.97;;
4504;SDS011;2265;48.794;9.520;2023-08-06T00:36:45;5.27;;;3.50;;
4504;SDS011;2265;48.794;9.520;2023-08-06T00:39:13;6.07;;;3.50;;
4504;SDS011;2265;48.794;9.520;2023-08-06T00:41:40;5.73;;;3.40;;
4504;SDS011;2265;48.794;9.520;2023-08-06T00:44:08;4.87;;;3.10;;
4504;SDS011;2265;48.794;9.520;2023-08-06T00:46:35;7.90;;;3.47;;
4504;SDS011;2265;48.794;9.520;2023-08-06T00:49:04;6.90;;;3.60;;
4504;SDS011;2265;48.794;9.520;2023-08-06T00:51:32;4.80;;;3.33;;
4504;SDS011;2265;48.794;9.520;2023-08-06T00:54:00;5.17;;;3.40;;
4504;SDS011;2265;48.794;9.520;2023-08-06T00:56:28;13.00;;;3.20;;
4504;SDS011;2265;48.794;9.520;2023-08-06T00:58:57;5.10;;;3.30;;
4504;SDS011;2265;48.794;9.520;2023-08-06T01:01:25;7.37;;;3.07;;
4504;SDS011;2265;48.794;9.520;2023-08-06T01:03:52;6.67;;;3.47;;
4504;SDS011;2265;48.794;9.520;2023-08-06T01:06:23;6.10;;;3.40;;
4504;SDS011;2265;48.794;9.520;2023-08-06T01:09:07;5.63;;;3.40;;
4504;SDS011;2265;48.794;9.520;2023-08-06T01:11:44;4.53;;;3.10;;
4504;SDS011;2265;48.794;9.520;2023-08-06T01:14:21;5.70;;;3.43;;
4504;SDS011;2265;48.794;9.520;2023-08-06T01:16:54;6.10;;;3.77;;
4504;SDS011;2265;48.794;9.520;2023-08-06T01:19:22;12.37;;;3.17;;
4504;SDS011;2265;48.794;9.520;2023-08-06T01:21:51;16.57;;;3.90;;
4504;SDS011;2265;48.794;9.520;2023-08-06T01:24:18;5.33;;;3.47;;
4504;SDS011;2265;48.794;9.520;2023-08-06T01:26:48;5.27;;;3.30;;
4504;SDS011;2265;48.794;9.520;2023-08-06T01:29:28;5.63;;;3.60;;
4504;SDS011;2265;48.794;9.520;2023-08-06T01:32:00;5.87;;;3.67;;
4504;SDS011;2265;48.794;9.520;2023-08-06T01:34:31;5.93;;;3.70;;
4504;SDS011;2265;48.794;9.520;2023-08-06T01:37:02;4.40;;;2.87;;
4504;SDS011;2265;48.794;9.520;2023-08-06T01:39:31;6.13;;;3.50;;
4504;SDS011;2265;48.794;9.520;2023-08-06T01:42:00;7.83;;;3.80;;
4504;SDS011;2265;48.794;9.520;2023-08-06T01:44:27;7.10;;;4.07;;
4504;SDS011;2265;48.794;9.520;2023-08-06T01:46:54;6.50;;;4.10;;
4504;SDS011;2265;48.794;9.520;2023-08-06T01:49:21;12.13;;;5.00;;
4504;SDS011;2265;48.794;9.520;2023-08-06T01:51:51;9.10;;;4.40;;
4504;SDS011;2265;48.794;9.520;2023-08-06T01:54:20;7.03;;;3.83;;
4504;SDS011;2265;48.794;9.520;2023-08-06T01:56:47;8.03;;;4.30;;
4504;SDS011;2265;48.794;9.520;2023-08-06T01:59:15;6.90;;;3.90;;
4504;SDS011;2265;48.794;9.520;2023-08-06T02:01:42;6.60;;;3.80;;
4504;SDS011;2265;48.794;9.520;2023-08-06T02:04:09;7.80;;;4.43;;
4504;SDS011;2265;48.794;9.520;2023-08-06T02:06:36;7.10;;;3.93;;
4504;SDS011;2265;48.794;9.520;2023-08-06T02:09:12;7.23;;;4.10;;
4504;SDS011;2265;48.794;9.520;2023-08-06T02:11:41;7.17;;;3.90;;
4504;SDS011;2265;48.794;9.520;2023-08-06T02:14:08;12.40;;;3.50;;
4504;SDS011;2265;48.794;9.520;2023-08-06T02:16:35;7.07;;;3.60;;
4504;SDS011;2265;48.794;9.520;2023-08-06T02:19:03;7.20;;;4.00;;
4504;SDS011;2265;48.794;9.520;2023-08-06T02:21:30;4.57;;;3.17;;
4504;SDS011;2265;48.794;9.520;2023-08-06T02:23:57;5.20;;;3.17;;
4504;SDS011;2265;48.794;9.520;2023-08-06T02:26:24;6.50;;;3.60;;
4504;SDS011;2265;48.794;9.520;2023-08-06T02:28:52;5.87;;;3.50;;
4504;SDS011;2265;48.794;9.520;2023-08-06T02:31:19;6.37;;;3.53;;
4504;SDS011;2265;48.794;9.520;2023-08-06T02:33:46;5.40;;;3.80;;
4504;SDS011;2265;48.794;9.520;2023-08-06T02:36:13;6.60;;;3.40;;
4504;SDS011;2265;48.794;9.520;2023-08-06T02:38:40;5.17;;;3.27;;
4504;SDS011;2265;48.794;9.520;2023-08-06T02:41:07;5.30;;;3.10;;
4504;SDS011;2265;48.794;9.520;2023-08-06T02:43:34;5.27;;;3.00;;
4504;SDS011;2265;48.794;9.520;2023-08-06T02:46:03;3.83;;;2.60;;
4504;SDS011;2265;48.794;9.520;2023-08-06T02:48:30;3.53;;;2.37;;
4504;SDS011;2265;48.794;9.520;2023-08-06T02:50:57;5.00;;;2.70;;
4504;SDS011;2265;48.794;9.520;2023-08-06T02:53:25;4.57;;;2.47;;
4504;SDS011;2265;48.794;9.520;2023-08-06T02:55:51;5.70;;;2.60;;
4504;SDS011;2265;48.794;9.520;2023-08-06T02:58:18;2.97;;;2.23;;
4504;SDS011;2265;48.794;9.520;2023-08-06T03:00:58;3.87;;;2.70;;
4504;SDS011;2265;48.794;9.520;2023-08-06T03:03:27;3.03;;;2.23;;
4504;SDS011;2265;48.794;9.520;2023-08-06T03:05:55;3.83;;;2.63;;
4504;SDS011;2265;48.794;9.520;2023-08-06T03:08:22;4.20;;;2.30;;
4504;SDS011;2265;48.794;9.520;2023-08-06T03:10:49;3.67;;;2.20;;
4504;SDS011;2265;48.794;9.520;2023-08-06T03:13:17;3.67;;;2.20;;
4504;SDS011;2265;48.794;9.520;2023-08-06T03:15:51;3.20;;;2.40;;
4504;SDS011;2265;48.794;9.520;2023-08-06T03:18:19;4.70;;;2.50;;
4504;SDS011;2265;48.794;9.520;2023-08-06T03:20:48;10.50;;;2.50;;
4504;SDS011;2265;48.794;9.520;2023-08-06T03:23:15;4.50;;;2.00;;
4504;SDS011;2265;48.794;9.520;2023-08-06T03:25:42;3.30;;;2.33;;
4504;SDS011;2265;48.794;9.520;2023-08-06T03:28:09;2.60;;;2.00;;
4504;SDS011;2265;48.794;9.520;2023-08-06T03:43:13;5.77;;;2.63;;
4504;SDS011;2265;48.794;9.520;2023-08-06T03:45:41;2.70;;;2.03;;
4504;SDS011;2265;48.794;9.520;2023-08-06T03:48:08;5.57;;;2.10;;
4504;SDS011;2265;48.794;9.520;2023-08-06T03:50:35;4.00;;;2.60;;
4504;SDS011;2265;48.794;9.520;2023-08-06T03:53:03;11.50;;;2.40;;
4504;SDS011;2265;48.794;9.520;2023-08-06T03:55:30;4.50;;;2.00;;
4504;SDS011;2265;48.794;9.520;2023-08-06T03:57:58;4.97;;;2.80;;
4504;SDS011;2265;48.794;9.520;2023-08-06T04:00:25;3.27;;;2.30;;
4504;SDS011;2265;48.794;9.520;2023-08-06T04:02:52;2.77;;;2.10;;
4504;SDS011;2265;48.794;9.520;2023-08-06T04:05:19;5.37;;;2.50;;
4504;SDS011;2265;48.794;9.520;2023-08-06T04:07:46;4.57;;;2.53;;
4504;SDS011;2265;48.794;9.520;2023-08-06T04:10:16;3.10;;;2.13;;
4504;SDS011;2265;48.794;9.520;2023-08-06T04:12:43;3.00;;;2.20;;
4504;SDS011;2265;48.794;9.520;2023-08-06T04:15:12;4.63;;;2.40;;
4504;SDS011;2265;48.794;9.520;2023-08-06T04:17:39;7.27;;;2.10;;
4504;SDS011;2265;48.794;9.520;2023-08-06T04:20:06;2.50;;;2.03;;
4504;SDS011;2265;48.794;9.520;2023-08-06T04:22:34;2.43;;;1.80;;
4504;SDS011;2265;48.794;9.520;2023-08-06T04:25:01;3.87;;;2.03;;
4504;SDS011;2265;48.794;9.520;2023-08-06T04:27:28;3.13;;;2.20;;
4504;SDS011;2265;48.794;9.520;2023-08-06T04:29:55;3.30;;;2.20;;
4504;SDS011;2265;48.794;9.520;2023-08-06T04:32:24;4.17;;;2.60;;
4504;SDS011;2265;48.794;9.520;2023-08-06T04:34:52;3.67;;;2.10;;
4504;SDS011;2265;48.794;9.520;2023-08-06T04:37:21;5.67;;;2.10;;
4504;SDS011;2265;48.794;9.520;2023-08-06T04:39:49;2.83;;;2.07;;
4504;SDS011;2265;48.794;9.520;2023-08-06T04:42:16;2.70;;;2.13;;
4504;SDS011;2265;48.794;9.520;2023-08-06T04:44:43;2.17;;;1.73;;
4504;SDS011;2265;48.794;9.520;2023-08-06T04:47:10;5.47;;;2.07;;
4504;SDS011;2265;48.794;9.520;2023-08-06T04:49:38;3.70;;;2.50;;
4504;SDS011;2265;48.794;9.520;2023-08-06T04:52:05;7.00;;;2.27;;
4504;SDS011;2265;48.794;9.520;2023-08-06T04:54:33;2.70;;;2.00;;
4504;SDS011;2265;48.794;9.520;2023-08-06T04:57:00;2.80;;;2.00;;
4504;SDS011;2265;48.794;9.520;2023-08-06T04:59:27;2.77;;;2.00;;
4504;SDS011;2265;48.794;9.520;2023-08-06T05:01:54;2.37;;;1.80;;
4504;SDS011;2265;48.794;9.520;2023-08-06T05:04:22;2.17;;;1.90;;
4504;SDS011;2265;48.794;9.520;2023-08-06T05:06:51;3.40;;;1.90;;
4504;SDS011;2265;48.794;9.520;2023-08-06T05:09:18;3.23;;;1.83;;
4504;SDS011;2265;48.794;9.520;2023-08-06T05:11:46;5.60;;;1.80;;
4504;SDS011;2265;48.794;9.520;2023-08-06T05:14:13;2.53;;;1.70;;
4504;SDS011;2265;48.794;9.520;2023-08-06T05:16:41;2.53;;;2.00;;
4504;SDS011;2265;48.794;9.520;2023-08-06T05:19:11;7.03;;;2.00;;
4504;SDS011;2265;48.794;9.520;2023-08-06T05:21:38;2.23;;;1.73;;
4504;SDS011;2265;48.794;9.520;2023-08-06T05:24:07;1.90;;;1.70;;
4504;SDS011;2265;48.794;9.520;2023-08-06T05:26:34;2.40;;;1.83;;
4504;SDS011;2265;48.794;9.520;2023-08-06T05:29:01;2.10;;;1.80;;
4504;SDS011;2265;48.794;9.520;2023-08-06T05:31:28;2.47;;;1.77;;
4504;SDS011;2265;48.794;9.520;2023-08-06T05:33:55;1.70;;;1.50;;
4504;SDS011;2265;48.794;9.520;2023-08-06T05:36:22;2.53;;;1.70;;
4504;SDS011;2265;48.794;9.520;2023-08-06T05:38:50;2.83;;;1.93;;
4504;SDS011;2265;48.794;9.520;2023-08-06T05:41:18;4.00;;;2.00;;
4504;SDS011;2265;48.794;9.520;2023-08-06T05:43:45;2.77;;;1.60;;
4504;SDS011;2265;48.794;9.520;2023-08-06T05:46:12;1.80;;;1.50;;
4504;SDS011;2265;48.794;9.520;2023-08-06T05:48:39;2.67;;;1.80;;
4504;SDS011;2265;48.794;9.520;2023-08-06T05:51:06;2.37;;;1.73;;
4504;SDS011;2265;48.794;9.520;2023-08-06T05:53:33;3.13;;;1.57;;
4504;SDS011;2265;48.794;9.520;2023-08-06T05:56:00;2.23;;;1.70;;
4504;SDS011;2265;48.794;9.520;2023-08-06T05:58:29;2.47;;;1.67;;
4504;SDS011;2265;48.794;9.520;2023-08-06T06:00:56;1.93;;;1.60;;
4504;SDS011;2265;48.794;9.520;2023-08-06T06:03:23;1.90;;;1.70;;
4504;SDS011;2265;48.794;9.520;2023-08-06T06:05:50;3.57;;;1.50;;
4504;SDS011;2265;48.794;9.520;2023-08-06T06:08:17;2.33;;;1.60;;
4504;SDS011;2265;48.794;9.520;2023-08-06T06:10:45;2.87;;;1.77;;
4504;SDS011;2265;48.794;9.520;2023-08-06T06:13:15;1.50;;;1.50;;
4504;SDS011;2265;48.794;9.520;2023-08-06T06:15:43;2.37;;;1.70;;
4504;SDS011;2265;48.794;9.520;2023-08-06T06:18:14;2.30;;;1.60;;
4504;SDS011;2265;48.794;9.520;2023-08-06T06:20:41;1.50;;;1.30;;
4504;SDS011;2265;48.794;9.520;2023-08-06T06:23:08;2.47;;;1.40;;
4504;SDS011;2265;48.794;9.520;2023-08-06T06:25:35;1.90;;;1.60;;
4504;SDS011;2265;48.794;9.520;2023-08-06T06:28:02;2.90;;;1.53;;
4504;SDS011;2265;48.794;9.520;2023-08-06T06:30:29;4.20;;;1.50;;
4504;SDS011;2265;48.794;9.520;2023-08-06T06:32:58;2.73;;;1.60;;
4504;SDS011;2265;48.794;9.520;2023-08-06T06:35:25;3.83;;;1.43;;
4504;SDS011;2265;48.794;9.520;2023-08-06T06:37:52;2.60;;;1.40;;
4504;SDS011;2265;48.794;9.520;2023-08-06T06:40:19;3.07;;;1.90;;
4504;SDS011;2265;48.794;9.520;2023-08-06T06:42:46;1.67;;;1.40;;
4504;SDS011;2265;48.794;9.520;2023-08-06T06:45:13;1.50;;;1.40;;
4504;SDS011;2265;48.794;9.520;2023-08-06T06:47:40;2.80;;;1.20;;
4504;SDS011;2265;48.794;9.520;2023-08-06T06:50:09;2.60;;;1.40;;
4504;SDS011;2265;48.794;9.520;2023-08-06T06:52:39;6.10;;;1.53;;
4504;SDS011;2265;48.794;9.520;2023-08-06T06:55:07;2.23;;;1.50;;
4504;SDS011;2265;48.794;9.520;2023-08-06T06:57:35;3.10;;;1.40;;
4504;SDS011;2265;48.794;9.520;2023-08-06T07:00:02;1.30;;;1.30;;
4504;SDS011;2265;48.794;9.520;2023-08-06T07:02:30;2.40;;;1.27;;
4504;SDS011;2265;48.794;9.520;2023-08-06T07:04:57;2.47;;;1.50;;
4504;SDS011;2265;48.794;9.520;2023-08-06T07:07:26;1.93;;;1.30;;
4504;SDS011;2265;48.794;9.520;2023-08-06T07:09:53;3.00;;;1.50;;
4504;SDS011;2265;48.794;9.520;2023-08-06T07:12:20;1.67;;;1.50;;
4504;SDS011;2265;48.794;9.520;2023-08-06T07:14:49;2.93;;;1.37;;
4504;SDS011;2265;48.794;9.520;2023-08-06T07:17:16;2.33;;;1.50;;
4504;SDS011;2265;48.794;9.520;2023-08-06T07:19:43;1.57;;;1.30;;
4504;SDS011;2265;48.794;9.520;2023-08-06T07:22:10;2.80;;;1.30;;
4504;SDS011;2265;48.794;9.520;2023-08-06T07:24:38;1.40;;;1.30;;
4504;SDS011;2265;48.794;9.520;2023-08-06T07:27:06;2.27;;;1.40;;
4504;SDS011;2265;48.794;9.520;2023-08-06T07:29:33;6.40;;;1.63;;
4504;SDS011;2265;48.794;9.520;2023-08-06T07:32:00;1.93;;;1.30;;
4504;SDS011;2265;48.794;9.520;2023-08-06T07:34:28;2.30;;;1.30;;
4504;SDS011;2265;48.794;9.520;2023-08-06T07:36:55;1.50;;;1.37;;
4504;SDS011;2265;48.794;9.520;2023-08-06T07:39:22;1.80;;;1.37;;
4504;SDS011;2265;48.794;9.520;2023-08-06T07:41:50;1.50;;;1.30;;
4504;SDS011;2265;48.794;9.520;2023-08-06T07:44:17;1.83;;;1.20;;
4504;SDS011;2265;48.794;9.520;2023-08-06T07:46:45;3.20;;;1.30;;
4504;SDS011;2265;48.794;9.520;2023-08-06T07:49:12;1.80;;;1.33;;
4504;SDS011;2265;48.794;9.520;2023-08-06T07:54:12;1.40;;;1.30;;
4504;SDS011;2265;48.794;9.520;2023-08-06T07:56:40;2.13;;;1.13;;
4504;SDS011;2265;48.794;9.520;2023-08-06T07:59:08;1.20;;;1.10;;
4504;SDS011;2265;48.794;9.520;2023-08-06T08:01:35;1.20;;;1.10;;
4504;SDS011;2265;48.794;9.520;2023-08-06T08:04:02;1.20;;;1.10;;
4504;SDS011;2265;48.794;9.520;2023-08-06T08:06:30;1.30;;;1.10;;
4504;SDS011;2265;48.794;9.520;2023-08-06T08:08:57;1.40;;;1.20;;
4504;SDS011;2265;48.794;9.520;2023-08-06T08:11:25;1.50;;;1.40;;
4504;SDS011;2265;48.794;9.520;2023-08-06T08:13:53;1.20;;;1.10;;
4504;SDS011;2265;48.794;9.520;2023-08-06T08:16:23;1.30;;;1.20;;
4504;SDS011;2265;48.794;9.520;2023-08-06T08:18:50;1.20;;;1.20;;
4504;SDS011;2265;48.794;9.520;2023-08-06T08:21:21;1.20;;;1.00;;
4504;SDS011;2265;48.794;9.520;2023-08-06T08:23:49;1.30;;;1.10;;
4504;SDS011;2265;48.794;9.520;2023-08-06T08:26:16;1.77;;;1.20;;
4504;SDS011;2265;48.794;9.520;2023-08-06T08:28:43;1.80;;;1.00;;
4504;SDS011;2265;48.794;9.520;2023-08-06T08:31:11;1.30;;;1.10;;
4504;SDS011;2265;48.794;9.520;2023-08-06T08:33:41;1.30;;;1.10;;
4504;SDS011;2265;48.794;9.520;2023-08-06T08:36:07;1.83;;;1.10;;
4504;SDS011;2265;48.794;9.520;2023-08-06T08:38:36;1.40;;;1.10;;
4504;SDS011;2265;48.794;9.520;2023-08-06T08:41:03;1.20;;;1.00;;
4504;SDS011;2265;48.794;9.520;2023-08-06T08:43:31;2.90;;;1.30;;
4504;SDS011;2265;48.794;9.520;2023-08-06T08:45:58;1.20;;;1.10;;
4504;SDS011;2265;48.794;9.520;2023-08-06T08:48:28;1.17;;;1.10;;
4504;SDS011;2265;48.794;9.520;2023-08-06T08:50:57;1.20;;;1.00;;
4504;SDS011;2265;48.794;9.520;2023-08-06T08:53:24;1.20;;;1.00;;
4504;SDS011;2265;48.794;9.520;2023-08-06T08:55:53;1.20;;;1.00;;
4504;SDS011;2265;48.794;9.520;2023-08-06T08:58:21;2.07;;;1.17;;
4504;SDS011;2265;48.794;9.520;2023-08-06T09:00:48;1.30;;;1.13;;
4504;SDS011;2265;48.794;9.520;2023-08-06T09:03:16;1.30;;;1.10;;
4504;SDS011;2265;48.794;9.520;2023-08-06T09:05:44;1.20;;;1.20;;
4504;SDS011;2265;48.794;9.520;2023-08-06T09:08:20;1.20;;;1.10;;
4504;SDS011;2265;48.794;9.520;2023-08-06T09:10:51;1.23;;;1.10;;
4504;SDS011;2265;48.794;9.520;2023-08-06T09:13:20;1.30;;;1.10;;
4504;SDS011;2265;48.794;9.520;2023-08-06T09:15:48;1.20;;;1.20;;
4504;SDS011;2265;48.794;9.520;2023-08-06T09:18:24;1.30;;;1.20;;
4504;SDS011;2265;48.794;9.520;2023-08-06T09:20:52;1.20;;;1.10;;
4504;SDS011;2265;48.794;9.520;2023-08-06T09:23:20;1.20;;;1.10;;
4504;SDS011;2265;48.794;9.520;2023-08-06T09:25:53;1.30;;;1.10;;
4504;SDS011;2265;48.794;9.520;2023-08-06T09:28:20;1.30;;;1.13;;
4504;SDS011;2265;48.794;9.520;2023-08-06T09:30:49;1.13;;;1.00;;
4504;SDS011;2265;48.794;9.520;2023-08-06T09:33:20;1.20;;;1.00;;
4504;SDS011;2265;48.794;9.520;2023-08-06T09:35:50;1.20;;;1.10;;
4504;SDS011;2265;48.794;9.520;2023-08-06T09:38:21;1.27;;;1.00;;
4504;SDS011;2265;48.794;9.520;2023-08-06T09:40:48;1.17;;;1.00;;
4504;SDS011;2265;48.794;9.520;2023-08-06T09:43:18;2.40;;;1.00;;
4504;SDS011;2265;48.794;9.520;2023-08-06T09:45:45;2.33;;;1.20;;
4504;SDS011;2265;48.794;9.520;2023-08-06T09:48:12;1.20;;;1.10;;
4504;SDS011;2265;48.794;9.520;2023-08-06T09:50:39;1.20;;;1.10;;
4504;SDS011;2265;48.794;9.520;2023-08-06T09:53:07;1.90;;;1.50;;
4504;SDS011;2265;48.794;9.520;2023-08-06T09:55:36;1.20;;;1.00;;
4504;SDS011;2265;48.794;9.520;2023-08-06T09:58:03;1.20;;;1.10;;
4504;SDS011;2265;48.794;9.520;2023-08-06T10:00:32;1.20;;;1.10;;
4504;SDS011;2265;48.794;9.520;2023-08-06T10:03:00;1.40;;;1.10;;
4504;SDS011;2265;48.794;9.520;2023-08-06T10:05:30;1.40;;;1.13;;
4504;SDS011;2265;48.794;9.520;2023-08-06T10:07:59;1.23;;;1.00;;
4504;SDS011;2265;48.794;9.520;2023-08-06T10:10:28;1.60;;;1.10;;
4504;SDS011;2265;48.794;9.520;2023-08-06T10:12:58;1.20;;;1.10;;
4504;SDS011;2265;48.794;9.520;2023-08-06T10:15:29;1.20;;;1.10;;
4504;SDS011;2265;48.794;9.520;2023-08-06T10:17:58;1.30;;;1.00;;
4504;SDS011;2265;48.794;9.520;2023-08-06T10:20:32;1.20;;;1.00;;
4504;SDS011;2265;48.794;9.520;2023-08-06T10:23:00;1.20;;;1.10;;
4504;SDS011;2265;48.794;9.520;2023-08-06T10:25:31;1.20;;;1.10;;
4504;SDS011;2265;48.794;9.520;2023-08-06T10:28:01;1.20;;;1.10;;
4504;SDS011;2265;48.794;9.520;2023-08-06T10:30:41;1.77;;;1.20;;
4504;SDS011;2265;48.794;9.520;2023-08-06T10:33:09;1.63;;;1.20;;
4504;SDS011;2265;48.794;9.520;2023-08-06T10:35:36;1.20;;;1.13;;
4504;SDS011;2265;48.794;9.520;2023-08-06T10:38:09;1.20;;;1.10;;
4504;SDS011;2265;48.794;9.520;2023-08-06T10:40:40;1.20;;;1.00;;
4504;SDS011;2265;48.794;9.520;2023-08-06T10:43:24;1.20;;;1.10;;
4504;SDS011;2265;48.794;9.520;2023-08-06T10:45:53;1.20;;;1.10;;
4504;SDS011;2265;48.794;9.520;2023-08-06T10:48:29;1.10;;;1.00;;
4504;SDS011;2265;48.794;9.520;2023-08-06T10:50:57;1.20;;;1.20;;
4504;SDS011;2265;48.794;9.520;2023-08-06T10:53:26;1.20;;;1.10;;
4504;SDS011;2265;48.794;9.520;2023-08-06T10:55:54;1.20;;;1.00;;
4504;SDS011;2265;48.794;9.520;2023-08-06T10:58:22;1.20;;;1.10;;
4504;SDS011;2265;48.794;9.520;2023-08-06T11:00:50;1.20;;;1.00;;
4504;SDS011;2265;48.794;9.520;2023-08-06T11:03:17;1.40;;;1.20;;
4504;SDS011;2265;48.794;9.520;2023-08-06T11:05:48;1.77;;;1.10;;
4504;SDS011;2265;48.794;9.520;2023-08-06T11:08:22;1.20;;;1.10;;
4504;SDS011;2265;48.794;9.520;2023-08-06T11:10:50;1.30;;;1.10;;
4504;SDS011;2265;48.794;9.520;2023-08-06T11:13:17;1.20;;;1.00;;
4504;SDS011;2265;48.794;9.520;2023-08-06T11:15:46;1.30;;;1.03;;
4504;SDS011;2265;48.794;9.520;2023-08-06T11:18:13;2.03;;;1.17;;
4504;SDS011;2265;48.794;9.520;2023-08-06T11:20:40;1.20;;;1.13;;
4504;SDS011;2265;48.794;9.520;2023-08-06T11:23:09;1.20;;;1.10;;
4504;SDS011;2265;48.794;9.520;2023-08-06T11:25:37;1.17;;;1.00;;
4504;SDS011;2265;48.794;9.520;2023-08-06T11:28:10;1.20;;;1.00;;
4504;SDS011;2265;48.794;9.520;2023-08-06T11:30:37;1.20;;;1.10;;
4504;SDS011;2265;48.794;9.520;2023-08-06T11:33:06;1.53;;;1.17;;
4504;SDS011;2265;48.794;9.520;2023-08-06T11:35:34;1.40;;;1.30;;
4504;SDS011;2265;48.794;9.520;2023-08-06T11:38:02;1.20;;;1.20;;
4504;SDS011;2265;48.794;9.520;2023-08-06T11:40:29;1.20;;;1.00;;
4504;SDS011;2265;48.794;9.520;2023-08-06T11:42:57;3.13;;;1.10;;
4504;SDS011;2265;48.794;9.520;2023-08-06T11:45:26;1.57;;;1.10;;
4504;SDS011;2265;48.794;9.520;2023-08-06T11:47:59;1.37;;;1.20;;
4504;SDS011;2265;48.794;9.520;2023-08-06T11:50:29;1.30;;;1.10;;
4504;SDS011;2265;48.794;9.520;2023-08-06T11:52:59;1.50;;;1.37;;
4504;SDS011;2265;48.794;9.520;2023-08-06T11:55:27;1.30;;;1.13;;
4504;SDS011;2265;48.794;9.520;2023-08-06T11:57:55;1.40;;;1.20;;
4504;SDS011;2265;48.794;9.520;2023-08-06T12:00:23;1.77;;;1.50;;
4504;SDS011;2265;48.794;9.520;2023-08-06T12:02:51;1.60;;;1.20;;
4504;SDS011;2265;48.794;9.520;2023-08-06T12:05:20;1.20;;;1.00;;
4504;SDS011;2265;48.794;9.520;2023-08-06T12:07:51;1.53;;;1.23;;
4504;SDS011;2265;48.794;9.520;2023-08-06T12:10:21;1.40;;;1.20;;
4504;SDS011;2265;48.794;9.520;2023-08-06T12:12:51;2.10;;;1.50;;
4504;SDS011;2265;48.794;9.520;2023-08-06T12:15:19;2.00;;;1.53;;
4504;SDS011;2265;48.794;9.520;2023-08-06T12:17:46;1.60;;;1.37;;
4504;SDS011;2265;48.794;9.520;2023-08-06T12:20:13;1.93;;;1.50;;
4504;SDS011;2265;48.794;9.520;2023-08-06T12:22:41;2.50;;;1.60;;
4504;SDS011;2265;48.794;9.520;2023-08-06T12:25:10;2.60;;;1.30;;
4504;SDS011;2265;48.794;9.520;2023-08-06T12:27:38;1.80;;;1.40;;
4504;SDS011;2265;48.794;9.520;2023-08-06T12:30:09;3.50;;;1.70;;
4504;SDS011;2265;48.794;9.520;2023-08-06T12:32:37;1.70;;;1.40;;
4504;SDS011;2265;48.794;9.520;2023-08-06T12:35:08;2.70;;;1.60;;
4504;SDS011;2265;48.794;9.520;2023-08-06T12:37:35;1.77;;;1.60;;
4504;SDS011;2265;48.794;9.520;2023-08-06T12:40:04;1.50;;;1.37;;
4504;SDS011;2265;48.794;9.520;2023-08-06T12:42:33;1.73;;;1.37;;
4504;SDS011;2265;48.794;9.520;2023-08-06T12:45:00;2.20;;;1.47;;
4504;SDS011;2265;48.794;9.520;2023-08-06T12:47:29;1.97;;;1.60;;
4504;SDS011;2265;48.794;9.520;2023-08-06T12:49:56;1.60;;;1.40;;
4504;SDS011;2265;48.794;9.520;2023-08-06T12:52:23;2.33;;;1.63;;
4504;SDS011;2265;48.794;9.520;2023-08-06T12:54:50;2.50;;;1.43;;
4504;SDS011;2265;48.794;9.520;2023-08-06T12:57:21;2.57;;;1.73;;
4504;SDS011;2265;48.794;9.520;2023-08-06T12:59:50;2.40;;;1.70;;
4504;SDS011;2265;48.794;9.520;2023-08-06T13:02:17;1.80;;;1.47;;
4504;SDS011;2265;48.794;9.520;2023-08-06T13:04:45;2.33;;;1.57;;
4504;SDS011;2265;48.794;9.520;2023-08-06T13:07:12;2.47;;;1.50;;
4504;SDS011;2265;48.794;9.520;2023-08-06T13:09:41;1.77;;;1.40;;
4504;SDS011;2265;48.794;9.520;2023-08-06T13:12:09;2.57;;;1.53;;
4504;SDS011;2265;48.794;9.520;2023-08-06T13:14:38;1.83;;;1.60;;
4504;SDS011;2265;48.794;9.520;2023-08-06T13:17:06;1.83;;;1.50;;
4504;SDS011;2265;48.794;9.520;2023-08-06T13:19:38;1.40;;;1.30;;
4504;SDS011;2265;48.794;9.520;2023-08-06T13:22:05;2.90;;;1.60;;
4504;SDS011;2265;48.794;9.520;2023-08-06T13:24:37;1.80;;;1.57;;
4504;SDS011;2265;48.794;9.520;2023-08-06T13:27:08;2.00;;;1.50;;
4504;SDS011;2265;48.794;9.520;2023-08-06T13:29:36;1.60;;;1.30;;
4504;SDS011;2265;48.794;9.520;2023-08-06T13:32:04;1.60;;;1.40;;
4504;SDS011;2265;48.794;9.520;2023-08-06T13:34:33;3.20;;;1.47;;
4504;SDS011;2265;48.794;9.520;2023-08-06T13:37:00;1.90;;;1.50;;
4504;SDS011;2265;48.794;9.520;2023-08-06T13:39:27;3.10;;;1.50;;
4504;SDS011;2265;48.794;9.520;2023-08-06T13:41:54;1.90;;;1.57;;
4504;SDS011;2265;48.794;9.520;2023-08-06T13:44:21;1.50;;;1.40;;
4504;SDS011;2265;48.794;9.520;2023-08-06T13:46:48;2.70;;;1.50;;
4504;SDS011;2265;48.794;9.520;2023-08-06T13:49:25;1.57;;;1.40;;
4504;SDS011;2265;48.794;9.520;2023-08-06T13:51:52;2.43;;;1.53;;
4504;SDS011;2265;48.794;9.520;2023-08-06T13:54:19;1.87;;;1.43;;
4504;SDS011;2265;48.794;9.520;2023-08-06T13:56:48;1.70;;;1.60;;
4504;SDS011;2265;48.794;9.520;2023-08-06T13:59:16;1.50;;;1.33;;
4504;SDS011;2265;48.794;9.520;2023-08-06T14:01:44;1.90;;;1.57;;
4504;SDS011;2265;48.794;9.520;2023-08-06T14:04:12;2.13;;;1.50;;
4504;SDS011;2265;48.794;9.520;2023-08-06T14:06:41;1.60;;;1.40;;
4504;SDS011;2265;48.794;9.520;2023-08-06T14:09:08;1.73;;;1.50;;
4504;SDS011;2265;48.794;9.520;2023-08-06T14:11:37;1.30;;;1.27;;
4504;SDS011;2265;48.794;9.520;2023-08-06T14:14:04;2.00;;;1.60;;
4504;SDS011;2265;48.794;9.520;2023-08-06T14:16:32;1.30;;;1.30;;
4504;SDS011;2265;48.794;9.520;2023-08-06T14:18:59;1.70;;;1.40;;
4504;SDS011;2265;48.794;9.520;2023-08-06T14:21:26;1.60;;;1.40;;
4504;SDS011;2265;48.794;9.520;2023-08-06T14:23:55;1.77;;;1.60;;
4504;SDS011;2265;48.794;9.520;2023-08-06T14:26:22;1.33;;;1.20;;
4504;SDS011;2265;48.794;9.520;2023-08-06T14:28:49;1.67;;;1.37;;
4504;SDS011;2265;48.794;9.520;2023-08-06T14:31:19;1.60;;;1.33;;
4504;SDS011;2265;48.794;9.520;2023-08-06T14:33:46;2.70;;;1.40;;
4504;SDS011;2265;48.794;9.520;2023-08-06T14:36:16;1.40;;;1.30;;
4504;SDS011;2265;48.794;9.520;2023-08-06T14:38:43;1.33;;;1.17;;
4504;SDS011;2265;48.794;9.520;2023-08-06T14:41:12;1.70;;;1.40;;
4504;SDS011;2265;48.794;9.520;2023-08-06T14:43:39;1.60;;;1.40;;
4504;SDS011;2265;48.794;9.520;2023-08-06T14:46:06;1.53;;;1.30;;
4504;SDS011;2265;48.794;9.520;2023-08-06T14:48:33;1.50;;;1.40;;
4504;SDS011;2265;48.794;9.520;2023-08-06T14:51:00;1.40;;;1.23;;
4504;SDS011;2265;48.794;9.520;2023-08-06T14:53:27;1.30;;;1.30;;
4504;SDS011;2265;48.794;9.520;2023-08-06T14:55:54;1.77;;;1.60;;
4504;SDS011;2265;48.794;9.520;2023-08-06T14:58:23;2.00;;;1.30;;
4504;SDS011;2265;48.794;9.520;2023-08-06T15:00:50;2.30;;;1.60;;
4504;SDS011;2265;48.794;9.520;2023-08-06T15:03:17;1.77;;;1.50;;
4504;SDS011;2265;48.794;9.520;2023-08-06T15:05:46;3.13;;;1.40;;
4504;SDS011;2265;48.794;9.520;2023-08-06T15:08:14;1.60;;;1.40;;
4504;SDS011;2265;48.794;9.520;2023-08-06T15:10:42;2.37;;;1.50;;
4504;SDS011;2265;48.794;9.520;2023-08-06T15:13:09;2.23;;;1.50;;
4504;SDS011;2265;48.794;9.520;2023-08-06T15:15:38;4.50;;;1.50;;
4504;SDS011;2265;48.794;9.520;2023-08-06T15:18:07;1.63;;;1.60;;
4504;SDS011;2265;48.794;9.520;2023-08-06T15:20:34;2.13;;;1.60;;
4504;SDS011;2265;48.794;9.520;2023-08-06T15:23:01;1.80;;;1.60;;
4504;SDS011;2265;48.794;9.520;2023-08-06T15:25:29;1.83;;;1.40;;
4504;SDS011;2265;48.794;9.520;2023-08-06T15:27:56;1.93;;;1.50;;
4504;SDS011;2265;48.794;9.520;2023-08-06T15:30:26;1.97;;;1.47;;
4504;SDS011;2265;48.794;9.520;2023-08-06T15:32:57;1.30;;;1.13;;
4504;SDS011;2265;48.794;9.520;2023-08-06T15:35:24;1.47;;;1.30;;
4504;SDS011;2265;48.794;9.520;2023-08-06T15:37:51;1.80;;;1.43;;